createdAt,value
2017-12-16T00:00:59.450Z,0
2017-12-16T00:02:09.908Z,0
2017-12-16T00:03:20.048Z,0
2017-12-16T00:04:29.929Z,0
2017-12-16T00:05:40.047Z,0
2017-12-16T00:06:50.536Z,0
2017-12-16T00:08:00.037Z,0
2017-12-16T00:09:09.889Z,0
2017-12-16T00:10:20.675Z,0
2017-12-16T00:11:30.812Z,0
2017-12-16T00:12:40.905Z,0
2017-12-16T00:13:50.777Z,0
2017-12-16T00:15:01.787Z,0
2017-12-16T00:16:12.822Z,0
2017-12-16T00:17:24.151Z,0
2017-12-16T00:18:35.266Z,0
2017-12-16T00:19:45.080Z,0
2017-12-16T00:20:55.147Z,0
2017-12-16T00:22:05.026Z,0
2017-12-16T00:23:15.117Z,0
2017-12-16T00:24:25.549Z,0
2017-12-16T00:25:35.605Z,0
2017-12-16T00:26:45.659Z,0
2017-12-16T00:27:55.457Z,0
2017-12-16T00:29:05.243Z,0
2017-12-16T00:30:15.352Z,0
2017-12-16T00:31:25.420Z,0
2017-12-16T00:32:35.482Z,0
2017-12-16T00:33:45.562Z,0
2017-12-16T00:34:55.617Z,0
2017-12-16T00:36:05.678Z,0
2017-12-16T00:37:15.735Z,0
2017-12-16T00:38:25.533Z,0
2017-12-16T00:39:35.608Z,0
2017-12-16T00:40:45.657Z,0
2017-12-16T00:41:55.718Z,0
2017-12-16T00:43:05.508Z,0
2017-12-16T00:44:15.562Z,0
2017-12-16T00:45:25.383Z,0
2017-12-16T00:46:34.917Z,0
2017-12-16T00:47:44.993Z,0
2017-12-16T00:48:54.793Z,0
2017-12-16T00:50:04.837Z,0
2017-12-16T00:51:14.633Z,0
2017-12-16T00:52:24.704Z,0
2017-12-16T00:53:34.812Z,0
2017-12-16T00:54:44.598Z,0
2017-12-16T00:55:54.651Z,0
2017-12-16T00:57:04.445Z,0
2017-12-16T00:58:14.494Z,0
2017-12-16T00:59:24.364Z,0
2017-12-16T01:00:34.147Z,0
2017-12-16T01:01:45.428Z,0
2017-12-16T01:02:55.477Z,0
2017-12-16T01:04:05.543Z,0
2017-12-16T01:05:15.348Z,0
2017-12-16T01:06:25.458Z,0
2017-12-16T01:07:35.041Z,0
2017-12-16T01:08:44.834Z,0
2017-12-16T01:09:54.885Z,0
2017-12-16T01:11:04.677Z,0
2017-12-16T01:12:14.738Z,0
2017-12-16T01:13:24.292Z,0
2017-12-16T01:14:34.857Z,0
2017-12-16T01:15:44.912Z,0
2017-12-16T01:16:54.986Z,0
2017-12-16T01:18:05.047Z,0
2017-12-16T01:19:15.088Z,0
2017-12-16T01:20:25.156Z,0
2017-12-16T01:21:35.217Z,0
2017-12-16T01:22:45.268Z,0
2017-12-16T01:23:56.070Z,0
2017-12-16T01:25:06.133Z,0
2017-12-16T01:26:16.186Z,0
2017-12-16T01:27:26.235Z,0
2017-12-16T01:28:36.053Z,0
2017-12-16T01:29:46.111Z,0
2017-12-16T01:30:56.174Z,0
2017-12-16T01:32:06.233Z,0
2017-12-16T01:33:16.293Z,0
2017-12-16T01:34:25.857Z,0
2017-12-16T01:35:35.910Z,0
2017-12-16T01:36:45.735Z,0
2017-12-16T01:37:55.512Z,0
2017-12-16T01:39:05.312Z,0
2017-12-16T01:40:15.419Z,0
2017-12-16T01:41:25.459Z,0
2017-12-16T01:42:35.255Z,0
2017-12-16T01:43:45.056Z,0
2017-12-16T01:44:55.123Z,0
2017-12-16T01:46:04.911Z,0
2017-12-16T01:47:14.952Z,0
2017-12-16T01:48:24.736Z,0
2017-12-16T01:49:34.802Z,0
2017-12-16T01:50:44.909Z,0
2017-12-16T01:51:55.021Z,0
2017-12-16T01:53:04.824Z,0
2017-12-16T01:54:14.602Z,0
2017-12-16T01:55:24.381Z,0
2017-12-16T01:56:34.450Z,0
2017-12-16T01:57:44.581Z,0
2017-12-16T01:58:54.636Z,0
2017-12-16T02:00:04.681Z,0
2017-12-16T02:01:14.733Z,0
2017-12-16T02:02:24.788Z,0
2017-12-16T02:03:34.843Z,0
2017-12-16T02:04:44.638Z,0
2017-12-16T02:05:54.443Z,0
2017-12-16T02:07:04.502Z,0
2017-12-16T02:08:14.032Z,0
2017-12-16T02:09:23.872Z,0
2017-12-16T02:10:33.921Z,0
2017-12-16T02:11:43.972Z,0
2017-12-16T02:12:53.780Z,0
2017-12-16T02:14:03.038Z,0
2017-12-16T02:15:13.190Z,0
2017-12-16T02:16:23.249Z,0
2017-12-16T02:17:32.786Z,0
2017-12-16T02:18:42.844Z,0
2017-12-16T02:19:52.644Z,0
2017-12-16T02:21:02.697Z,0
2017-12-16T02:22:12.488Z,0
2017-12-16T02:23:22.027Z,0
2017-12-16T02:24:32.079Z,0
2017-12-16T02:25:42.132Z,0
2017-12-16T02:26:52.182Z,0
2017-12-16T02:28:02.242Z,0
2017-12-16T02:29:12.294Z,0
2017-12-16T02:30:22.341Z,0
2017-12-16T02:31:32.404Z,0
2017-12-16T02:32:42.659Z,0
2017-12-16T02:33:52.713Z,0
2017-12-16T02:35:02.240Z,0
2017-12-16T02:36:12.320Z,0
2017-12-16T02:37:22.114Z,0
2017-12-16T02:38:32.181Z,0
2017-12-16T02:39:41.182Z,0
2017-12-16T02:40:50.969Z,0
2017-12-16T02:42:00.768Z,0
2017-12-16T02:43:10.566Z,0
2017-12-16T02:44:20.626Z,0
2017-12-16T02:45:30.504Z,0
2017-12-16T02:46:40.555Z,0
2017-12-16T02:47:50.361Z,0
2017-12-16T02:49:00.434Z,0
2017-12-16T02:50:10.483Z,0
2017-12-16T02:51:20.275Z,0
2017-12-16T02:52:30.338Z,0
2017-12-16T02:53:40.129Z,0
2017-12-16T02:54:49.920Z,0
2017-12-16T02:55:59.774Z,0
2017-12-16T02:57:09.032Z,0
2017-12-16T02:58:18.822Z,0
2017-12-16T02:59:28.882Z,0
2017-12-16T03:00:38.942Z,0
2017-12-16T03:01:49.094Z,0
2017-12-16T03:02:58.875Z,0
2017-12-16T03:34:30.543Z,0
2017-12-16T03:35:40.584Z,0
2017-12-16T03:36:50.110Z,0
2017-12-16T03:37:59.688Z,0
2017-12-16T03:39:09.730Z,0
2017-12-16T03:40:19.303Z,0
2017-12-16T03:41:28.849Z,0
2017-12-16T03:42:38.904Z,0
2017-12-16T03:43:48.946Z,0
2017-12-16T03:44:58.991Z,0
2017-12-16T03:46:08.839Z,0
2017-12-16T03:47:18.887Z,0
2017-12-16T03:48:28.949Z,0
2017-12-16T03:49:39.027Z,0
2017-12-16T03:50:48.816Z,0
2017-12-16T03:51:58.921Z,0
2017-12-16T03:53:08.968Z,0
2017-12-16T03:54:19.007Z,0
2017-12-16T03:55:28.804Z,0
2017-12-16T03:56:38.851Z,0
2017-12-16T03:57:48.646Z,0
2017-12-16T03:58:58.702Z,0
2017-12-16T04:00:08.760Z,0
2017-12-16T04:01:18.817Z,0
2017-12-16T04:02:28.870Z,0
2017-12-16T04:03:38.967Z,0
2017-12-16T04:04:48.771Z,0
2017-12-16T04:05:58.820Z,0
2017-12-16T04:07:08.612Z,0
2017-12-16T04:08:18.409Z,0
2017-12-16T04:09:28.263Z,0
2017-12-16T04:10:38.316Z,0
2017-12-16T04:11:48.384Z,0
2017-12-16T04:12:58.428Z,0
2017-12-16T04:14:07.984Z,0
2017-12-16T04:15:17.770Z,0
2017-12-16T04:16:27.818Z,0
2017-12-16T04:17:37.879Z,0
2017-12-16T04:18:47.674Z,0
2017-12-16T04:19:57.211Z,0
2017-12-16T04:21:07.309Z,0
2017-12-16T04:22:17.160Z,0
2017-12-16T04:23:27.216Z,0
2017-12-16T04:24:36.999Z,0
2017-12-16T04:25:46.516Z,0
2017-12-16T04:26:56.628Z,0
2017-12-16T04:28:06.688Z,0
2017-12-16T04:29:16.475Z,0
2017-12-16T04:30:26.262Z,0
2017-12-16T04:31:36.051Z,0
2017-12-16T04:32:45.886Z,0
2017-12-16T04:33:55.412Z,0
2017-12-16T04:35:04.941Z,0
2017-12-16T04:36:14.477Z,0
2017-12-16T04:37:24.527Z,0
2017-12-16T04:38:34.586Z,0
2017-12-16T04:39:44.381Z,0
2017-12-16T04:40:54.157Z,0
2017-12-16T04:42:03.944Z,0
2017-12-16T04:43:13.747Z,0
2017-12-16T04:44:23.536Z,0
2017-12-16T04:45:33.598Z,0
2017-12-16T04:46:43.454Z,0
2017-12-16T04:47:53.242Z,0
2017-12-16T04:49:03.036Z,0
2017-12-16T04:50:12.876Z,0
2017-12-16T04:51:22.674Z,0
2017-12-16T04:52:32.460Z,0
2017-12-16T04:53:42.506Z,0
2017-12-16T04:54:52.314Z,0
2017-12-16T04:56:02.365Z,0
2017-12-16T04:57:12.421Z,0
2017-12-16T04:58:22.489Z,0
2017-12-16T04:59:32.267Z,0
2017-12-16T05:00:42.317Z,0
2017-12-16T05:01:52.364Z,0
2017-12-16T05:03:02.419Z,0
2017-12-16T05:04:12.486Z,0
2017-12-16T05:05:22.279Z,0
2017-12-16T05:06:32.331Z,0
2017-12-16T05:07:42.394Z,0
2017-12-16T05:08:52.513Z,0
2017-12-16T05:10:02.335Z,0
2017-12-16T05:11:12.392Z,0
2017-12-16T05:12:22.454Z,0
2017-12-16T05:13:32.502Z,0
2017-12-16T05:14:42.292Z,0
2017-12-16T05:15:52.100Z,0
2017-12-16T05:17:02.149Z,0
2017-12-16T05:18:12.208Z,0
2017-12-16T05:19:22.040Z,0
2017-12-16T05:20:31.837Z,0
2017-12-16T05:21:41.630Z,0
2017-12-16T05:22:51.681Z,0
2017-12-16T05:24:01.461Z,0
2017-12-16T05:25:11.260Z,0
2017-12-16T05:26:21.055Z,0
2017-12-16T05:27:30.852Z,0
2017-12-16T05:28:40.900Z,0
2017-12-16T05:29:50.716Z,0
2017-12-16T05:31:00.507Z,0
2017-12-16T05:32:10.570Z,0
2017-12-16T05:33:20.618Z,0
2017-12-16T05:34:30.404Z,0
2017-12-16T05:35:40.453Z,0
2017-12-16T05:36:50.523Z,0
2017-12-16T05:38:00.562Z,0
2017-12-16T05:39:10.621Z,0
2017-12-16T05:40:20.682Z,0
2017-12-16T05:41:30.472Z,0
2017-12-16T05:42:40.265Z,0
2017-12-16T05:43:50.043Z,0
2017-12-16T05:44:59.840Z,0
2017-12-16T05:46:09.611Z,0
2017-12-16T05:47:19.397Z,0
2017-12-16T05:48:29.174Z,0
2017-12-16T05:49:39.222Z,0
2017-12-16T05:50:49.002Z,0
2017-12-16T05:51:59.066Z,0
2017-12-16T05:53:08.842Z,0
2017-12-16T05:54:19.994Z,0
2017-12-16T05:55:29.784Z,0
2017-12-16T05:56:39.567Z,0
2017-12-16T05:57:49.360Z,0
2017-12-16T05:58:59.150Z,0
2017-12-16T06:00:08.926Z,0
2017-12-16T06:01:18.973Z,0
2017-12-16T06:02:29.032Z,0
2017-12-16T06:03:38.812Z,0
2017-12-16T06:04:48.869Z,0
2017-12-16T06:05:58.970Z,0
2017-12-16T06:07:09.028Z,0
2017-12-16T06:08:18.549Z,0
2017-12-16T06:09:28.615Z,0
2017-12-16T06:10:38.649Z,0
2017-12-16T06:11:48.750Z,4
2017-12-16T06:12:58.531Z,4
2017-12-16T06:14:08.604Z,4
2017-12-16T06:15:18.654Z,0
2017-12-16T06:16:28.761Z,4
2017-12-16T06:17:38.824Z,4
2017-12-16T06:18:48.885Z,4
2017-12-16T06:19:59.013Z,4
2017-12-16T06:21:09.063Z,4
2017-12-16T06:22:18.867Z,8
2017-12-16T06:23:28.648Z,8
2017-12-16T06:24:38.698Z,12
2017-12-16T06:25:48.742Z,12
2017-12-16T06:26:58.535Z,16
2017-12-16T06:28:08.606Z,16
2017-12-16T06:29:18.727Z,20
2017-12-16T06:30:28.792Z,24
2017-12-16T06:31:38.578Z,28
2017-12-16T06:32:48.634Z,28
2017-12-16T06:33:58.697Z,36
2017-12-16T06:35:08.479Z,40
2017-12-16T06:36:18.567Z,44
2017-12-16T06:37:28.616Z,52
2017-12-16T06:38:38.403Z,60
2017-12-16T06:39:48.222Z,64
2017-12-16T06:40:58.258Z,72
2017-12-16T06:42:08.034Z,76
2017-12-16T06:43:18.069Z,88
2017-12-16T06:44:28.117Z,96
2017-12-16T06:45:38.161Z,104
2017-12-16T06:46:48.004Z,112
2017-12-16T06:47:57.796Z,124
2017-12-16T06:49:07.334Z,136
2017-12-16T06:50:17.388Z,148
2017-12-16T06:51:27.185Z,156
2017-12-16T06:52:37.071Z,168
2017-12-16T06:53:46.329Z,180
2017-12-16T06:54:56.369Z,196
2017-12-16T06:56:06.435Z,208
2017-12-16T06:57:16.235Z,228
2017-12-16T06:58:26.026Z,240
2017-12-16T06:59:36.106Z,256
2017-12-16T07:00:46.190Z,272
2017-12-16T07:01:55.972Z,288
2017-12-16T07:03:07.029Z,304
2017-12-16T07:04:17.088Z,324
2017-12-16T07:05:26.609Z,336
2017-12-16T07:06:36.401Z,352
2017-12-16T07:07:46.258Z,372
2017-12-16T07:08:56.305Z,392
2017-12-16T07:10:05.872Z,408
2017-12-16T07:11:15.668Z,428
2017-12-16T07:12:25.723Z,448
2017-12-16T07:13:35.515Z,472
2017-12-16T07:14:45.064Z,496
2017-12-16T07:15:54.929Z,524
2017-12-16T07:17:04.975Z,552
2017-12-16T07:18:15.031Z,584
2017-12-16T07:19:25.076Z,620
2017-12-16T07:20:35.123Z,660
2017-12-16T07:21:44.895Z,696
2017-12-16T07:22:53.957Z,736
2017-12-16T07:24:03.809Z,776
2017-12-16T07:25:13.593Z,816
2017-12-16T07:26:23.642Z,852
2017-12-16T07:27:33.491Z,888
2017-12-16T07:28:43.543Z,924
2017-12-16T07:29:53.351Z,960
2017-12-16T07:31:03.535Z,992
2017-12-16T07:32:14.104Z,1016
2017-12-16T07:33:23.952Z,1048
2017-12-16T07:34:34.023Z,1076
2017-12-16T07:35:43.820Z,1104
2017-12-16T07:36:53.619Z,1132
2017-12-16T07:38:03.695Z,1176
2017-12-16T07:39:13.537Z,1196
2017-12-16T07:40:23.324Z,1212
2017-12-16T07:41:33.121Z,1220
2017-12-16T07:42:42.912Z,1224
2017-12-16T07:43:52.707Z,1236
2017-12-16T07:45:02.238Z,1252
2017-12-16T07:46:12.031Z,1264
2017-12-16T07:47:22.076Z,1292
2017-12-16T07:48:31.610Z,1332
2017-12-16T07:49:41.487Z,1376
2017-12-16T07:50:51.015Z,1428
2017-12-16T07:52:00.811Z,1448
2017-12-16T07:53:10.868Z,1488
2017-12-16T07:54:20.729Z,1528
2017-12-16T07:55:30.800Z,1560
2017-12-16T07:56:40.870Z,1580
2017-12-16T07:57:50.671Z,1604
2017-12-16T07:59:00.457Z,1612
2017-12-16T08:00:10.563Z,1620
2017-12-16T08:01:19.836Z,1620
2017-12-16T08:02:29.638Z,1576
2017-12-16T08:03:39.688Z,1516
2017-12-16T08:04:49.492Z,1492
2017-12-16T08:05:59.292Z,1448
2017-12-16T08:07:09.581Z,1380
2017-12-16T08:08:19.384Z,1324
2017-12-16T08:09:29.446Z,1272
2017-12-16T08:10:39.260Z,1220
2017-12-16T08:11:49.050Z,1136
2017-12-16T08:12:59.108Z,1060
2017-12-16T08:14:08.922Z,1004
2017-12-16T08:15:18.445Z,964
2017-12-16T08:16:28.494Z,936
2017-12-16T08:17:38.668Z,888
2017-12-16T08:18:48.453Z,844
2017-12-16T08:19:58.497Z,808
2017-12-16T08:21:08.545Z,736
2017-12-16T08:22:18.096Z,672
2017-12-16T08:23:27.892Z,648
2017-12-16T08:24:37.698Z,680
2017-12-16T08:25:47.502Z,752
2017-12-16T08:26:57.928Z,856
2017-12-16T08:28:07.734Z,960
2017-12-16T08:29:17.568Z,1096
2017-12-16T08:30:27.649Z,1252
2017-12-16T08:31:37.703Z,1328
2017-12-16T08:32:47.507Z,1360
2017-12-16T08:33:57.360Z,1388
2017-12-16T08:35:07.415Z,1416
2017-12-16T08:36:17.487Z,1508
2017-12-16T08:37:27.552Z,1596
2017-12-16T08:38:37.612Z,1668
2017-12-16T08:39:47.418Z,1740
2017-12-16T08:40:57.200Z,1788
2017-12-16T08:42:06.996Z,1844
2017-12-16T08:43:17.109Z,1880
2017-12-16T08:44:26.640Z,1892
2017-12-16T08:45:36.445Z,1888
2017-12-16T08:46:46.258Z,1876
2017-12-16T08:47:56.367Z,1880
2017-12-16T08:49:05.636Z,1900
2017-12-16T08:50:15.709Z,1944
2017-12-16T08:51:25.755Z,1988
2017-12-16T08:52:35.552Z,2040
2017-12-16T08:53:45.086Z,2548
2017-12-16T08:54:55.162Z,2160
2017-12-16T08:56:04.960Z,2228
2017-12-16T08:57:14.757Z,2256
2017-12-16T08:58:24.816Z,2244
2017-12-16T08:59:34.878Z,2228
2017-12-16T09:00:44.710Z,2204
2017-12-16T09:01:54.755Z,2220
2017-12-16T09:03:04.829Z,2204
2017-12-16T09:04:14.938Z,2180
2017-12-16T09:05:25.045Z,2140
2017-12-16T09:06:35.118Z,2080
2017-12-16T09:07:45.199Z,1912
2017-12-16T09:08:54.995Z,1756
2017-12-16T09:10:05.063Z,1628
2017-12-16T09:11:14.854Z,1536
2017-12-16T09:12:25.913Z,1456
2017-12-16T09:13:35.713Z,1428
2017-12-16T09:14:45.776Z,1440
2017-12-16T09:15:55.836Z,1432
2017-12-16T09:17:05.940Z,1436
2017-12-16T09:18:16.002Z,1448
2017-12-16T09:19:25.528Z,1456
2017-12-16T09:20:34.813Z,1516
2017-12-16T09:21:44.890Z,1660
2017-12-16T09:22:54.944Z,1824
2017-12-16T09:24:04.765Z,1912
2017-12-16T09:25:14.582Z,1976
2017-12-16T09:26:24.382Z,1940
2017-12-16T09:27:34.203Z,1816
2017-12-16T09:28:44.430Z,1656
2017-12-16T09:29:54.482Z,1572
2017-12-16T09:31:04.564Z,1584
2017-12-16T09:32:14.645Z,1648
2017-12-16T09:33:24.438Z,1772
2017-12-16T09:34:34.532Z,1900
2017-12-16T09:35:44.582Z,2080
2017-12-16T09:36:55.883Z,2208
2017-12-16T09:38:05.968Z,2340
2017-12-16T09:39:15.762Z,2400
2017-12-16T09:40:25.892Z,2388
2017-12-16T09:41:35.692Z,2428
2017-12-16T09:42:45.227Z,2436
2017-12-16T09:43:54.769Z,2416
2017-12-16T09:45:04.877Z,2456
2017-12-16T09:46:14.992Z,2404
2017-12-16T09:47:24.790Z,2440
2017-12-16T09:48:34.586Z,2508
2017-12-16T09:49:44.661Z,2600
2017-12-16T09:50:54.739Z,2556
2017-12-16T09:52:04.841Z,2576
2017-12-16T09:53:14.647Z,2540
2017-12-16T09:54:25.567Z,2368
2017-12-16T09:55:35.382Z,2292
2017-12-16T09:56:45.163Z,2332
2017-12-16T09:57:54.960Z,2320
2017-12-16T09:59:04.507Z,2340
2017-12-16T10:00:14.326Z,2404
2017-12-16T10:01:24.128Z,2348
2017-12-16T10:02:34.209Z,2268
2017-12-16T10:03:44.022Z,2216
2017-12-16T10:04:53.547Z,2280
2017-12-16T10:06:03.597Z,2424
2017-12-16T10:07:13.654Z,2552
2017-12-16T10:08:23.731Z,2716
2017-12-16T10:09:33.839Z,2756
2017-12-16T10:10:43.903Z,2784
2017-12-16T10:11:54.401Z,2840
2017-12-16T10:13:04.462Z,2848
2017-12-16T10:14:14.256Z,2832
2017-12-16T10:15:24.337Z,2732
2017-12-16T10:16:34.444Z,3060
2017-12-16T10:17:44.510Z,2828
2017-12-16T10:18:54.574Z,2796
2017-12-16T10:20:04.648Z,2704
2017-12-16T10:21:14.739Z,2504
2017-12-16T10:22:24.582Z,2312
2017-12-16T10:23:34.645Z,2176
2017-12-16T10:24:44.760Z,2160
2017-12-16T10:25:54.547Z,2188
2017-12-16T10:27:04.596Z,2340
2017-12-16T10:28:14.740Z,2480
2017-12-16T10:29:24.778Z,2556
2017-12-16T10:30:34.816Z,2596
2017-12-16T10:31:44.882Z,2636
2017-12-16T10:32:54.939Z,2692
2017-12-16T10:34:05.055Z,2692
2017-12-16T10:35:15.178Z,2684
2017-12-16T10:36:25.244Z,2656
2017-12-16T10:37:35.035Z,2608
2017-12-16T10:38:45.395Z,2572
2017-12-16T10:39:55.240Z,2560
2017-12-16T10:41:05.045Z,2544
2017-12-16T10:42:14.846Z,2536
2017-12-16T10:43:24.644Z,2516
2017-12-16T10:44:34.174Z,2500
2017-12-16T10:45:44.301Z,2500
2017-12-16T10:46:54.363Z,2540
2017-12-16T10:48:04.175Z,2564
2017-12-16T10:49:13.973Z,2556
2017-12-16T10:50:24.049Z,2528
2017-12-16T10:51:34.261Z,2476
2017-12-16T10:52:44.372Z,2380
2017-12-16T10:53:54.481Z,2264
2017-12-16T10:55:04.393Z,2148
2017-12-16T10:56:14.455Z,2076
2017-12-16T10:57:24.264Z,2012
2017-12-16T10:58:34.071Z,1920
2017-12-16T10:59:44.737Z,1796
2017-12-16T11:00:54.791Z,1700
2017-12-16T11:02:04.660Z,1696
2017-12-16T11:03:14.242Z,1740
2017-12-16T11:04:24.044Z,1832
2017-12-16T11:05:34.106Z,1916
2017-12-16T11:06:43.935Z,1960
2017-12-16T11:07:54.009Z,1984
2017-12-16T11:09:04.111Z,2040
2017-12-16T11:10:14.198Z,2128
2017-12-16T11:11:23.994Z,2212
2017-12-16T11:12:34.057Z,2244
2017-12-16T11:13:43.860Z,2252
2017-12-16T11:14:53.910Z,2244
2017-12-16T11:16:03.968Z,2224
2017-12-16T11:17:13.764Z,2164
2017-12-16T11:18:23.816Z,2088
2017-12-16T11:19:33.612Z,1988
2017-12-16T11:20:43.459Z,1896
2017-12-16T11:21:53.522Z,1824
2017-12-16T11:23:03.314Z,1756
2017-12-16T11:24:13.553Z,1692
2017-12-16T11:25:23.359Z,1636
2017-12-16T11:26:33.483Z,1628
2017-12-16T11:27:43.535Z,1640
2017-12-16T11:28:53.611Z,1648
2017-12-16T11:30:03.708Z,1660
2017-12-16T11:31:13.765Z,1668
2017-12-16T11:32:23.559Z,1688
2017-12-16T11:33:33.367Z,1688
2017-12-16T11:34:43.428Z,1656
2017-12-16T11:35:53.484Z,1668
2017-12-16T11:37:03.560Z,1688
2017-12-16T11:38:13.357Z,1688
2017-12-16T11:39:24.316Z,1728
2017-12-16T11:40:34.153Z,1772
2017-12-16T11:41:44.422Z,1808
2017-12-16T11:42:54.731Z,1828
2017-12-16T11:44:04.640Z,1872
2017-12-16T11:45:15.312Z,1932
2017-12-16T11:46:26.291Z,1968
2017-12-16T11:47:36.435Z,2000
2017-12-16T11:48:46.355Z,2028
2017-12-16T11:49:56.172Z,2064
2017-12-16T11:51:06.229Z,2096
2017-12-16T11:52:16.020Z,2128
2017-12-16T11:53:26.153Z,2160
2017-12-16T11:54:36.449Z,2176
2017-12-16T11:55:46.521Z,2164
2017-12-16T11:56:55.786Z,2140
2017-12-16T11:58:05.842Z,2128
2017-12-16T11:59:15.380Z,2128
2017-12-16T12:00:25.448Z,2124
2017-12-16T12:01:36.016Z,2116
2017-12-16T12:02:45.805Z,2116
2017-12-16T12:03:55.866Z,2120
2017-12-16T12:05:05.679Z,2116
2017-12-16T12:06:15.743Z,2100
2017-12-16T12:07:26.351Z,2092
2017-12-16T12:08:36.453Z,2108
2017-12-16T12:09:46.579Z,2128
2017-12-16T12:10:56.631Z,2144
2017-12-16T12:12:07.612Z,2136
2017-12-16T12:13:17.700Z,2120
2017-12-16T12:14:27.759Z,2100
2017-12-16T12:15:37.872Z,2072
2017-12-16T12:16:47.932Z,2004
2017-12-16T12:17:57.736Z,1908
2017-12-16T12:19:07.802Z,1876
2017-12-16T12:20:17.629Z,1912
2017-12-16T12:21:27.460Z,1936
2017-12-16T12:22:36.985Z,1864
2017-12-16T12:23:46.787Z,1856
2017-12-16T12:24:56.601Z,1904
2017-12-16T12:26:06.651Z,1936
2017-12-16T12:27:16.459Z,1960
2017-12-16T12:28:27.927Z,1988
2017-12-16T12:29:37.719Z,2024
2017-12-16T12:30:47.528Z,2072
2017-12-16T12:31:57.596Z,2320
2017-12-16T12:33:07.715Z,2904
2017-12-16T12:34:17.786Z,3100
2017-12-16T12:35:27.855Z,2964
2017-12-16T12:36:39.126Z,2892
2017-12-16T12:37:49.188Z,2664
2017-12-16T12:38:58.969Z,2656
2017-12-16T12:40:08.765Z,2708
2017-12-16T12:41:18.827Z,2864
2017-12-16T12:42:28.943Z,2660
2017-12-16T12:43:39.015Z,2724
2017-12-16T12:44:49.134Z,2640
2017-12-16T12:45:58.896Z,2604
2017-12-16T12:47:08.705Z,2364
2017-12-16T12:48:18.769Z,2212
2017-12-16T12:49:28.569Z,2116
2017-12-16T12:50:38.485Z,2040
2017-12-16T12:51:48.554Z,1996
2017-12-16T12:52:58.357Z,1908
2017-12-16T12:54:08.220Z,1852
2017-12-16T12:55:18.015Z,1832
2017-12-16T12:56:27.876Z,1860
2017-12-16T12:57:37.675Z,1976
2017-12-16T12:58:47.229Z,2152
2017-12-16T12:59:57.275Z,2096
2017-12-16T13:01:07.359Z,2124
2017-12-16T13:02:17.484Z,2124
2017-12-16T13:03:28.077Z,2132
2017-12-16T13:04:38.160Z,2068
2017-12-16T13:05:48.207Z,1968
2017-12-16T13:06:58.289Z,1908
2017-12-16T13:08:08.410Z,1884
2017-12-16T13:09:18.212Z,1892
2017-12-16T13:10:28.289Z,1900
2017-12-16T13:11:38.332Z,1916
2017-12-16T13:12:48.133Z,1916
2017-12-16T13:13:57.460Z,1892
2017-12-16T13:15:08.227Z,1860
2017-12-16T13:16:18.280Z,1832
2017-12-16T13:17:28.371Z,1780
2017-12-16T13:18:38.434Z,1792
2017-12-16T13:19:47.766Z,1840
2017-12-16T13:20:57.820Z,3228
2017-12-16T13:22:07.357Z,1712
2017-12-16T13:23:17.432Z,1620
2017-12-16T13:24:27.491Z,1536
2017-12-16T13:25:37.544Z,1484
2017-12-16T13:26:47.599Z,1448
2017-12-16T13:27:57.656Z,1452
2017-12-16T13:29:07.462Z,1476
2017-12-16T13:30:17.260Z,1504
2017-12-16T13:31:27.393Z,1528
2017-12-16T13:32:37.201Z,1532
2017-12-16T13:33:46.790Z,1484
2017-12-16T13:34:56.842Z,1420
2017-12-16T13:36:06.896Z,1376
2017-12-16T13:37:16.951Z,1316
2017-12-16T13:38:26.762Z,1260
2017-12-16T13:39:36.825Z,1220
2017-12-16T13:40:46.915Z,1188
2017-12-16T13:41:56.989Z,1172
2017-12-16T13:43:07.400Z,1180
2017-12-16T13:44:17.504Z,1188
2017-12-16T13:45:27.308Z,1176
2017-12-16T13:46:37.118Z,1168
2017-12-16T13:47:47.317Z,1184
2017-12-16T13:48:57.398Z,1548
2017-12-16T13:50:07.184Z,1156
2017-12-16T13:51:16.747Z,1172
2017-12-16T13:52:26.804Z,2196
2017-12-16T13:53:36.905Z,2276
2017-12-16T13:54:47.023Z,2232
2017-12-16T13:55:57.085Z,2028
2017-12-16T13:57:07.196Z,1988
2017-12-16T13:58:17.336Z,1788
2017-12-16T13:59:26.880Z,1676
2017-12-16T14:00:37.380Z,1684
2017-12-16T14:01:47.531Z,1708
2017-12-16T14:02:57.624Z,1748
2017-12-16T14:04:07.525Z,1700
2017-12-16T14:05:17.587Z,1508
2017-12-16T14:06:27.440Z,1296
2017-12-16T14:07:37.591Z,1092
2017-12-16T14:08:47.192Z,1448
2017-12-16T14:09:57.329Z,1388
2017-12-16T14:11:07.130Z,1184
2017-12-16T14:12:18.759Z,988
2017-12-16T14:13:28.572Z,1264
2017-12-16T14:14:39.636Z,1180
2017-12-16T14:15:49.723Z,932
2017-12-16T14:16:59.544Z,816
2017-12-16T14:18:09.793Z,796
2017-12-16T14:19:20.988Z,756
2017-12-16T14:20:30.780Z,732
2017-12-16T14:21:46.312Z,732
2017-12-16T14:22:56.153Z,708
2017-12-16T14:24:06.489Z,664
2017-12-16T14:25:16.306Z,628
2017-12-16T14:26:26.152Z,596
2017-12-16T14:27:36.249Z,560
2017-12-16T14:28:46.320Z,520
2017-12-16T14:29:56.124Z,484
2017-12-16T14:31:06.215Z,452
2017-12-16T14:32:15.775Z,420
2017-12-16T14:33:25.850Z,388
2017-12-16T14:34:35.950Z,360
2017-12-16T14:35:46.027Z,332
2017-12-16T14:36:55.820Z,312
2017-12-16T14:38:05.881Z,288
2017-12-16T14:39:15.884Z,276
2017-12-16T14:40:25.961Z,260
2017-12-16T14:41:35.509Z,252
2017-12-16T14:42:45.604Z,236
2017-12-16T14:43:55.390Z,220
2017-12-16T14:45:05.194Z,204
2017-12-16T14:46:15.287Z,192
2017-12-16T14:47:25.123Z,176
2017-12-16T14:48:35.198Z,164
2017-12-16T14:49:44.995Z,152
2017-12-16T14:50:56.162Z,148
2017-12-16T14:52:06.483Z,136
2017-12-16T14:53:16.315Z,132
2017-12-16T14:54:25.836Z,124
2017-12-16T14:55:35.650Z,116
2017-12-16T14:56:45.756Z,108
2017-12-16T14:57:55.318Z,100
2017-12-16T14:59:05.603Z,92
2017-12-16T15:00:16.828Z,84
2017-12-16T15:01:30.425Z,76
2017-12-16T15:02:40.353Z,72
2017-12-16T15:03:50.979Z,60
2017-12-16T15:05:01.657Z,56
2017-12-16T15:06:11.717Z,48
2017-12-16T15:07:21.786Z,44
2017-12-16T15:08:31.853Z,36
2017-12-16T15:09:41.938Z,32
2017-12-16T15:10:52.065Z,28
2017-12-16T15:12:01.876Z,24
2017-12-16T15:13:11.945Z,24
2017-12-16T15:14:23.580Z,20
2017-12-16T15:15:33.647Z,16
2017-12-16T15:16:43.900Z,12
2017-12-16T15:17:53.970Z,12
2017-12-16T15:19:05.945Z,8
2017-12-16T15:20:16.001Z,8
2017-12-16T15:21:26.095Z,8
2017-12-16T15:22:35.916Z,8
2017-12-16T15:23:45.745Z,4
2017-12-16T15:24:55.296Z,4
2017-12-16T15:26:05.413Z,4
2017-12-16T15:27:14.951Z,4
2017-12-16T15:28:25.071Z,4
2017-12-16T15:29:35.150Z,0
2017-12-16T15:30:45.199Z,0
2017-12-16T15:31:54.727Z,4
2017-12-16T15:33:04.809Z,4
2017-12-16T15:34:14.616Z,0
2017-12-16T15:35:24.428Z,0
2017-12-16T15:36:33.972Z,0
2017-12-16T15:37:43.816Z,0
2017-12-16T15:38:53.377Z,0
2017-12-16T15:40:02.915Z,0
2017-12-16T15:41:13.006Z,0
2017-12-16T15:42:23.060Z,0
2017-12-16T15:43:32.859Z,0
2017-12-16T15:44:42.690Z,0
2017-12-16T15:45:52.772Z,0
2017-12-16T15:47:02.846Z,0
2017-12-16T15:48:12.967Z,0
2017-12-16T15:49:23.798Z,0
2017-12-16T15:50:33.893Z,0
2017-12-16T15:51:43.961Z,0
2017-12-16T15:52:54.116Z,0
2017-12-16T15:54:05.071Z,0
2017-12-16T15:55:14.602Z,0
2017-12-16T15:56:24.407Z,0
2017-12-16T15:57:34.467Z,0
2017-12-16T15:58:44.269Z,0
2017-12-16T15:59:54.378Z,0
2017-12-16T16:01:04.168Z,0
2017-12-16T16:02:13.723Z,0
2017-12-16T16:03:23.294Z,0
2017-12-16T16:04:33.100Z,0
2017-12-16T16:05:43.192Z,0
2017-12-16T16:06:53.021Z,0
2017-12-16T16:08:03.162Z,0
2017-12-16T16:09:13.208Z,0
2017-12-16T16:10:24.277Z,0
2017-12-16T16:11:34.357Z,0
2017-12-16T16:12:44.454Z,0
2017-12-16T16:13:55.955Z,0
2017-12-16T16:15:05.771Z,0
2017-12-16T16:16:15.829Z,0
2017-12-16T16:17:25.629Z,0
2017-12-16T16:18:35.175Z,0
2017-12-16T16:19:45.234Z,0
2017-12-16T16:20:58.445Z,0
2017-12-16T16:22:08.502Z,0
2017-12-16T16:23:18.353Z,0
2017-12-16T16:24:28.718Z,0
2017-12-16T16:25:38.801Z,0
2017-12-16T16:26:48.887Z,0
2017-12-16T16:27:58.977Z,0
2017-12-16T16:29:08.836Z,0
2017-12-16T16:30:18.644Z,0
2017-12-16T16:31:28.722Z,0
2017-12-16T16:32:38.258Z,0
2017-12-16T16:33:48.070Z,0
2017-12-16T16:34:59.698Z,0
2017-12-16T16:36:09.764Z,0
2017-12-16T16:37:19.326Z,0
2017-12-16T16:38:30.304Z,0
2017-12-16T16:39:40.109Z,0
2017-12-16T16:40:50.538Z,0
2017-12-16T16:42:00.331Z,0
2017-12-16T16:43:09.881Z,0
2017-12-16T16:44:19.691Z,0
2017-12-16T16:45:29.763Z,0
2017-12-16T16:46:39.821Z,0
2017-12-16T16:47:50.944Z,0
2017-12-16T16:49:00.999Z,0
2017-12-16T16:50:10.822Z,0
2017-12-16T16:51:22.503Z,0
2017-12-16T16:52:32.617Z,0
2017-12-16T16:53:42.672Z,0